Time;durP1;ratioP1;P1;durP2;ratioP2;P2;SDS_P1;SDS_P2;PMS_P1;PMS_P2;Temp;Humidity;BMP_temperature;BMP_pressure;BME280_temperature;BME280_humidity;BME280_pressure;Samples;Min_cycle;Max_cycle;Signal;HPM_P1;HPM_P2
2023/10/11 00:00:59;;;;;;;16.90;10.98;;;10.40;99.90;;;11.23;96.16;98326.53;10449156;28;20735;-66
2023/10/11 00:06:04;;;;;;;15.68;10.18;;;10.50;99.90;;;11.19;97.03;98329.72;10449736;28;20700;-73
2023/10/11 00:11:08;;;;;;;13.30;9.52;;;10.50;99.90;;;11.22;96.25;98326.47;10448415;28;20275;-66
2023/10/11 00:16:16;;;;;;;15.20;9.90;;;10.40;99.90;;;11.23;95.73;98334.22;10448357;28;20722;-67
2023/10/11 00:21:35;;;;;;;14.93;9.40;;;10.40;99.90;;;11.14;95.02;98332.78;10448736;28;20232;-66
2023/10/11 00:26:40;;;;;;;13.43;9.25;;;10.30;99.90;;;11.04;94.80;98324.53;10447665;28;20263;-67
2023/10/11 00:31:45;;;;;;;18.23;10.18;;;10.20;99.90;;;10.98;95.13;98320.69;10449336;28;20229;-67
2023/10/11 00:36:49;;;;;;;14.65;9.00;;;10.20;99.90;;;10.94;95.76;98311.94;10451138;28;20236;-67
2023/10/11 00:41:53;;;;;;;16.58;9.18;;;10.20;99.90;;;10.99;95.06;98308.00;10449511;28;20637;-67
2023/10/11 00:47:00;;;;;;;12.88;9.05;;;10.20;99.90;;;10.98;95.46;98313.00;10447343;28;20255;-66
2023/10/11 00:52:06;;;;;;;12.45;8.55;;;10.10;99.90;;;10.92;95.10;98310.06;10448978;28;20368;-68
2023/10/11 00:57:11;;;;;;;14.90;8.40;;;10.00;99.90;;;10.80;95.30;98303.41;10449863;28;20252;-66
2023/10/11 01:02:16;;;;;;;16.08;9.18;;;9.90;99.90;;;10.68;95.23;98301.75;10447205;28;20676;-66
2023/10/11 01:07:19;;;;;;;14.60;9.23;;;9.90;99.90;;;10.67;96.15;98303.41;10447017;28;20231;-67
2023/10/11 01:12:23;;;;;;;12.93;8.55;;;9.90;99.90;;;10.69;97.62;98293.28;10448815;28;20233;-66
2023/10/11 01:17:31;;;;;;;12.80;8.43;;;9.90;99.90;;;10.65;98.03;98293.91;10448615;28;20593;-66
2023/10/11 01:22:35;;;;;;;12.13;9.07;;;9.90;99.90;;;10.72;97.57;98299.47;10443713;28;20660;-67
2023/10/11 01:27:39;;;;;;;12.73;9.20;;;10.00;99.90;;;10.79;97.38;98290.53;10448220;28;20220;-66
2023/10/11 01:32:42;;;;;;;14.05;8.90;;;10.00;99.90;;;10.79;97.10;98286.31;10445463;28;20235;-65
2023/10/11 01:37:48;;;;;;;14.25;8.25;;;10.00;99.90;;;10.91;96.00;98283.63;10445126;28;20217;-66
2023/10/11 01:42:51;;;;;;;14.45;8.60;;;10.10;99.90;;;10.95;97.46;98289.81;10447431;28;20261;-66
2023/10/11 01:47:56;;;;;;;11.70;7.85;;;10.20;99.90;;;11.05;96.02;98279.38;10443881;28;20661;-64
2023/10/11 01:53:03;;;;;;;12.13;8.43;;;10.20;99.90;;;11.01;96.38;98282.50;10444769;28;20221;-66
2023/10/11 01:58:12;;;;;;;11.45;7.82;;;10.20;99.90;;;11.02;96.89;98276.63;10443685;28;20783;-66
2023/10/11 02:03:15;;;;;;;15.35;9.30;;;10.30;99.90;;;11.02;96.79;98286.84;10436875;28;20244;-65
2023/10/11 02:08:20;;;;;;;15.95;9.52;;;10.20;99.90;;;10.99;97.54;98279.00;10446752;28;20766;-66
2023/10/11 02:13:23;;;;;;;14.55;8.90;;;10.20;99.90;;;11.07;97.18;98276.88;10436219;28;20717;-66
2023/10/11 02:18:26;;;;;;;15.93;8.90;;;10.30;99.90;;;11.03;97.27;98257.91;10438827;28;20753;-66
2023/10/11 02:23:37;;;;;;;12.43;8.65;;;10.30;99.90;;;11.09;97.77;98268.53;10435311;28;20248;-67
2023/10/11 02:28:40;;;;;;;13.70;8.43;;;10.30;99.90;;;11.11;97.55;98266.97;10435517;28;20225;-66
2023/10/11 02:33:43;;;;;;;17.38;9.23;;;10.30;99.90;;;11.12;97.61;98261.03;10435787;28;20225;-66
2023/10/11 02:38:50;;;;;;;13.85;8.27;;;10.40;99.90;;;11.09;97.29;98263.41;10436372;28;20247;-66
2023/10/11 02:43:57;;;;;;;12.65;7.05;;;10.30;99.90;;;11.09;96.83;98260.84;10444352;28;20221;-66
2023/10/11 02:49:06;;;;;;;12.02;7.72;;;10.30;99.90;;;10.97;97.38;98262.66;10447495;28;20300;-66
2023/10/11 02:54:14;;;;;;;9.93;7.40;;;10.10;99.90;;;10.92;98.37;98256.38;10446714;28;20303;-66
2023/10/11 02:59:20;;;;;;;12.52;7.55;;;10.10;99.90;;;10.91;97.89;98270.84;10451433;28;20248;-65
2023/10/11 03:04:27;;;;;;;10.80;7.97;;;10.10;99.90;;;10.93;99.15;98260.69;10442553;28;20240;-64
2023/10/11 03:09:33;;;;;;;12.43;8.25;;;10.20;99.90;;;10.97;98.96;98255.00;10444937;28;20233;-66
2023/10/11 03:14:41;;;;;;;12.98;8.15;;;10.20;99.90;;;10.85;99.02;98257.69;10442648;28;20225;-66
2023/10/11 03:19:45;;;;;;;11.18;7.80;;;10.00;99.90;;;10.79;99.53;98263.28;10447757;28;20474;-65
2023/10/11 03:24:59;;;;;;;10.38;7.63;;;10.00;99.90;;;10.85;98.93;98256.78;10444221;28;20704;-67
2023/10/11 03:30:03;;;;;;;12.98;8.38;;;10.10;99.90;;;10.80;99.18;98254.81;10446539;28;20680;-65
2023/10/11 03:35:08;;;;;;;12.48;6.90;;;10.00;99.90;;;10.73;98.85;98255.25;10443185;28;20225;-66
2023/10/11 03:40:27;;;;;;;12.57;7.97;;;10.00;99.90;;;10.75;99.18;98253.63;10442835;28;20229;-66
2023/10/11 03:45:34;;;;;;;10.18;8.00;;;10.00;99.90;;;10.79;98.99;98255.63;10442929;28;20225;-65
2023/10/11 03:50:47;;;;;;;13.57;7.63;;;10.00;99.90;;;10.73;98.64;98247.56;10444470;28;20221;-66
2023/10/11 03:55:53;;;;;;;13.15;8.50;;;9.90;99.90;;;10.68;98.47;98248.06;10443172;28;20658;-65
2023/10/11 04:01:05;;;;;;;10.55;7.30;;;9.90;99.90;;;10.58;99.39;98237.25;10442233;28;20229;-66
2023/10/11 04:06:15;;;;;;;12.43;7.80;;;9.80;99.90;;;10.62;98.90;98232.34;10444635;28;20244;-64
2023/10/11 04:11:30;;;;;;;9.02;7.30;;;9.80;99.90;;;10.58;99.98;98232.13;10445519;28;20936;-66
2023/10/11 04:16:33;;;;;;;11.02;7.43;;;9.70;99.90;;;10.51;99.63;98235.09;10457451;28;20265;-65
2023/10/11 04:21:54;;;;;;;13.23;8.32;;;9.70;99.90;;;10.51;99.70;98239.34;10449936;28;20656;-65
2023/10/11 04:27:45;;;;;;;8.95;7.18;;;9.70;99.90;;;10.54;98.90;98229.31;10446206;28;20233;-65
2023/10/11 04:32:41;;;;;;;10.00;6.80;;;9.70;99.90;;;10.41;99.21;98232.75;10445051;28;20606;-65
2023/10/11 04:37:44;;;;;;;10.43;6.88;;;9.60;99.90;;;10.35;99.05;98235.78;10444029;28;20257;-65
2023/10/11 04:43:04;;;;;;;10.50;7.20;;;9.50;99.90;;;10.26;99.61;98240.28;10442244;28;20227;-65
2023/10/11 04:48:07;;;;;;;9.17;6.97;;;9.40;99.90;;;10.22;99.58;98248.53;10440444;28;20232;-65
2023/10/11 04:53:17;;;;;;;10.75;7.30;;;9.50;99.90;;;10.22;100.00;98251.09;10441382;28;20229;-65
2023/10/11 04:58:39;;;;;;;10.80;8.00;;;9.50;99.90;;;10.32;100.00;98250.91;10438786;28;20229;-66
2023/10/11 05:03:42;;;;;;;9.77;8.87;;;9.60;99.90;;;10.41;100.00;98249.75;10434079;28;20291;-64
2023/10/11 05:08:54;;;;;;;10.98;7.93;;;9.70;99.90;;;10.44;100.00;98257.59;10428937;28;20225;-66
2023/10/11 05:14:10;;;;;;;10.77;7.65;;;9.70;99.90;;;10.48;100.00;98249.38;10436734;28;20259;-64
2023/10/11 05:19:15;;;;;;;8.90;6.90;;;9.70;99.90;;;10.49;100.00;98257.13;10432670;28;20235;-66
2023/10/11 05:24:43;;;;;;;10.20;7.40;;;9.70;99.90;;;10.51;99.61;98252.13;10439319;28;20220;-64
2023/10/11 05:35:19;;;;;;;8.38;6.63;;;9.70;99.90;;;10.45;99.53;98259.41;10431205;28;20389;-66
2023/10/11 05:51:07;;;;;;;11.45;7.35;;;9.50;99.90;;;10.19;100.00;98263.69;10435336;28;20229;-67
2023/10/11 05:56:20;;;;;;;9.52;7.57;;;9.40;99.90;;;10.20;100.00;98264.56;10433695;28;20243;-67
2023/10/11 06:01:26;;;;;;;11.82;7.88;;;9.40;99.90;;;10.34;100.00;98263.81;10435826;28;20232;-66
2023/10/11 06:06:32;;;;;;;10.38;7.00;;;9.60;99.90;;;10.58;100.00;98261.94;10436702;28;20235;-66
2023/10/11 06:11:38;;;;;;;9.00;7.80;;;9.80;99.90;;;10.76;100.00;98262.22;10436381;28;20233;-67
2023/10/11 06:16:43;;;;;;;15.43;8.43;;;10.00;99.90;;;10.58;100.00;98264.47;10434216;28;20217;-66
2023/10/11 06:21:57;;;;;;;11.40;8.45;;;9.90;99.90;;;10.80;99.84;98272.72;10434236;28;20302;-64
2023/10/11 06:28:09;;;;;;;12.43;8.38;;;10.00;99.90;;;11.56;97.88;98283.34;10437408;28;20607;-66
2023/10/11 06:32:36;;;;;;;9.52;7.20;;;10.50;99.90;;;12.04;94.18;98274.22;10435202;28;20225;-65
2023/10/11 06:37:40;;;;;;;9.75;6.70;;;10.90;99.90;;;12.34;92.70;98284.47;10435604;28;20312;-67
2023/10/11 06:42:43;;;;;;;10.80;6.53;;;11.40;99.90;;;12.62;91.26;98271.53;10434886;28;20608;-66
2023/10/11 06:47:50;;;;;;;11.95;8.40;;;11.60;99.90;;;12.77;89.69;98256.09;10436742;28;20236;-66
2023/10/11 06:52:53;;;;;;;10.40;8.10;;;12.00;99.90;;;13.40;87.47;98262.06;10435938;28;20672;-67
2023/10/11 06:57:57;;;;;;;12.40;8.25;;;12.60;99.90;;;13.90;85.16;98261.22;10437258;28;20237;-67
2023/10/11 07:03:09;;;;;;;13.38;9.10;;;12.90;99.90;;;14.13;81.96;98254.66;10432766;28;20224;-67
2023/10/11 07:08:17;;;;;;;13.40;8.80;;;13.20;99.90;;;14.35;81.95;98251.44;10434685;28;20704;-65
2023/10/11 07:13:21;;;;;;;10.57;8.20;;;13.40;99.90;;;14.70;79.40;98255.72;10437198;28;20287;-67
2023/10/11 07:18:25;;;;;;;14.55;9.82;;;13.70;99.90;;;14.94;77.34;98260.28;10433340;28;20236;-66
2023/10/11 07:23:45;;;;;;;12.57;9.10;;;14.10;99.90;;;15.18;76.32;98261.38;10434158;28;20233;-65
2023/10/11 07:28:50;;;;;;;13.30;9.75;;;14.30;99.90;;;15.52;74.79;98263.78;10449470;28;20687;-67
2023/10/11 07:33:56;;;;;;;13.02;9.52;;;14.60;99.90;;;15.37;76.03;98268.25;10444161;28;20229;-67
2023/10/11 07:39:00;;;;;;;13.50;9.30;;;14.60;99.90;;;15.80;75.16;98269.31;10439747;28;20961;-66
2023/10/11 07:44:06;;;;;;;13.43;9.43;;;15.10;99.90;;;15.92;73.02;98269.81;10441905;28;20705;-69
2023/10/11 07:49:14;;;;;;;13.80;9.45;;;15.20;99.90;;;16.37;72.19;98260.53;10439104;28;20225;-64
2023/10/11 07:54:20;;;;;;;14.98;9.75;;;15.60;99.90;;;16.66;70.77;98256.53;10439878;28;20232;-64
2023/10/11 07:59:26;;;;;;;14.02;9.57;;;16.00;99.90;;;17.02;69.22;98256.22;10444409;28;20221;-67
2023/10/11 08:04:31;;;;;;;15.45;10.32;;;16.30;99.90;;;17.31;68.69;98259.91;10440841;28;20248;-65
2023/10/11 08:09:45;;;;;;;11.02;9.05;;;16.50;99.90;;;17.54;68.15;98263.34;10439189;28;20274;-67
2023/10/11 08:14:53;;;;;;;12.20;9.05;;;16.80;99.90;;;18.04;66.56;98259.91;10434858;28;20217;-68
2023/10/11 08:19:58;;;;;;;13.55;9.23;;;17.30;99.90;;;18.43;65.17;98243.13;10441218;28;20229;-67
2023/10/11 08:25:02;;;;;;;11.05;9.02;;;17.70;99.90;;;18.57;64.22;98237.47;10440324;28;20228;-66
2023/10/11 08:30:09;;;;;;;13.50;9.10;;;17.90;99.90;;;18.61;64.11;98249.72;10439090;28;20240;-66
2023/10/11 08:35:16;;;;;;;11.75;8.80;;;18.00;99.90;;;19.03;62.25;98252.78;10439001;28;20225;-67
2023/10/11 08:40:22;;;;;;;14.05;8.80;;;18.40;99.90;;;19.28;61.39;98248.31;10438423;28;20318;-67
2023/10/11 08:45:33;;;;;;;15.35;9.00;;;18.70;99.90;;;19.86;60.71;98249.97;10437299;28;20315;-67
2023/10/11 08:50:38;;;;;;;13.05;8.73;;;19.30;99.90;;;20.17;59.23;98237.78;10438293;28;20221;-67
2023/10/11 08:55:42;;;;;;;11.57;8.05;;;19.60;99.90;;;20.60;57.58;98236.25;10436910;28;20324;-68
2023/10/11 09:00:47;;;;;;;12.27;7.57;;;20.10;99.90;;;20.92;55.07;98235.28;10434177;28;20233;-66
2023/10/11 09:05:59;;;;;;;11.32;7.70;;;20.40;99.40;;;21.24;54.31;98237.69;10435406;28;20228;-66
2023/10/11 09:11:15;;;;;;;11.82;6.88;;;20.70;98.60;;;21.50;53.63;98230.44;10436910;28;20229;-68
2023/10/11 09:16:34;;;;;;;12.00;7.00;;;21.10;98.10;;;21.87;52.20;98225.06;10436843;28;20319;-66
2023/10/11 09:21:42;;;;;;;9.93;6.40;;;21.40;96.90;;;22.14;50.90;98222.06;10437210;28;20232;-64
2023/10/11 09:26:45;;;;;;;11.25;6.30;;;21.60;96.10;;;22.26;51.07;98207.56;10438523;28;20340;-67
2023/10/11 09:31:58;;;;;;;11.00;6.68;;;21.70;96.20;;;22.55;50.08;98216.66;10438159;28;20933;-66
2023/10/11 09:37:04;;;;;;;9.15;6.55;;;22.00;95.50;;;22.74;50.32;98217.84;10441053;28;20338;-68
2023/10/11 09:42:12;;;;;;;10.77;6.28;;;22.20;95.50;;;22.96;49.48;98209.50;10436436;28;20229;-66
2023/10/11 09:47:17;;;;;;;10.25;6.93;;;22.40;95.10;;;23.04;50.04;98215.69;10433805;28;20229;-64
2023/10/11 09:52:23;;;;;;;11.27;6.65;;;22.50;95.20;;;23.29;48.86;98213.38;10433152;28;20692;-67
2023/10/11 09:57:36;;;;;;;9.70;6.13;;;22.80;94.20;;;23.48;48.27;98219.72;10440657;28;20229;-67
2023/10/11 10:02:44;;;;;;;8.77;5.57;;;23.00;93.70;;;23.60;48.10;98215.50;10440187;28;20610;-67
2023/10/11 10:07:52;;;;;;;10.70;6.40;;;23.10;93.70;;;23.79;48.43;98218.34;10438919;28;20708;-67
2023/10/11 10:12:59;;;;;;;10.90;6.15;;;23.30;93.90;;;23.93;47.04;98210.66;10440566;28;20232;-65
2023/10/11 10:18:20;;;;;;;9.85;6.03;;;23.30;93.10;;;24.08;46.14;98208.19;10443424;28;20232;-70
2023/10/11 10:23:29;;;;;;;9.75;5.60;;;23.50;92.00;;;24.32;43.53;98201.41;10441084;28;20232;-62
2023/10/11 10:28:52;;;;;;;9.88;5.28;;;23.80;89.90;;;24.48;42.01;98203.31;10438857;28;20239;-67
2023/10/11 10:34:29;;;;;;;8.02;4.97;;;23.90;88.20;;;24.73;41.96;98192.16;10432777;28;20282;-67
2023/10/11 10:39:46;;;;;;;9.73;4.93;;;24.20;87.20;;;24.93;41.18;98194.03;10305050;28;20227;-67
2023/10/11 10:44:54;;;;;;;10.23;5.00;;;24.40;86.00;;;25.08;40.02;98186.22;10434700;28;20873;-67
2023/10/11 10:50:04;;;;;;;9.43;4.90;;;24.60;83.90;;;25.31;38.55;98180.25;10434745;28;20220;-67
2023/10/11 10:55:10;;;;;;;9.27;4.82;;;24.70;82.00;;;25.38;39.04;98187.25;10435395;28;20217;-67
2023/10/11 11:00:25;;;;;;;9.18;4.47;;;24.80;82.30;;;25.42;38.88;98189.03;10433175;28;20306;-66
2023/10/11 11:05:29;;;;;;;7.55;4.90;;;24.90;82.30;;;25.52;38.94;98171.59;10442978;28;20274;-65
2023/10/11 11:10:37;;;;;;;9.45;5.30;;;25.10;82.20;;;25.67;38.80;98160.25;10439658;28;20220;-66
2023/10/11 11:15:44;;;;;;;9.40;4.90;;;25.20;81.80;;;25.62;38.29;98149.81;10440754;28;20224;-66
2023/10/11 11:20:51;;;;;;;8.48;4.93;;;25.20;81.00;;;25.59;39.16;98153.28;10437671;28;20604;-65
2023/10/11 11:25:57;;;;;;;13.10;5.25;;;25.10;81.80;;;25.79;38.32;98150.69;10440532;28;20270;-66
2023/10/11 11:31:13;;;;;;;8.00;4.95;;;25.30;80.80;;;25.74;38.63;98141.97;10440173;28;20236;-66
2023/10/11 11:36:30;;;;;;;10.18;5.05;;;25.20;81.00;;;25.79;38.54;98149.84;10442618;28;20643;-65
2023/10/11 11:41:35;;;;;;;8.60;5.15;;;25.20;80.90;;;25.91;38.27;98146.38;10438311;28;20301;-66
2023/10/11 11:46:39;;;;;;;10.02;5.03;;;25.30;80.30;;;25.95;38.80;98128.03;10440451;28;20339;-66
2023/10/11 11:51:43;;;;;;;7.57;4.85;;;25.40;81.10;;;25.84;38.63;98121.94;10439549;28;20232;-65
2023/10/11 11:56:48;;;;;;;9.52;5.30;;;25.20;81.40;;;25.79;38.53;98113.16;10437192;28;20601;-66
2023/10/11 12:01:54;;;;;;;12.27;5.07;;;25.10;80.70;;;25.54;38.28;98113.13;10442191;28;20413;-66
2023/10/11 12:06:59;;;;;;;7.82;4.63;;;24.90;80.20;;;25.40;39.38;98096.53;10435840;28;20574;-66
2023/10/11 12:12:06;;;;;;;7.85;4.78;;;24.80;81.50;;;25.67;39.63;98094.81;10437094;28;20254;-66
2023/10/11 12:17:10;;;;;;;7.93;4.82;;;25.00;82.20;;;25.91;38.63;98087.00;10437906;28;20686;-66
2023/10/11 12:22:15;;;;;;;7.50;4.60;;;25.30;80.90;;;26.01;37.79;98082.59;10441343;28;20239;-66
2023/10/11 12:27:21;;;;;;;10.00;6.10;;;25.40;79.40;;;26.21;37.71;98082.59;10439897;28;20448;-65
2023/10/11 12:32:28;;;;;;;7.82;4.80;;;25.70;79.00;;;26.13;37.79;98076.50;10438417;28;20232;-65
2023/10/11 12:37:32;;;;;;;8.98;4.53;;;25.50;78.80;;;25.97;37.85;98076.50;10438448;28;20252;-66
2023/10/11 12:42:37;;;;;;;9.15;5.30;;;25.40;79.40;;;26.14;37.43;98063.38;10438178;28;20298;-66
2023/10/11 12:47:41;;;;;;;10.73;5.20;;;25.40;79.00;;;26.20;37.76;98062.50;10435664;28;20279;-66
2023/10/11 12:52:45;;;;;;;6.80;4.70;;;25.40;79.40;;;26.18;37.10;98062.53;10437430;28;20619;-66
2023/10/11 12:57:50;;;;;;;9.27;4.63;;;25.40;78.20;;;26.09;38.13;98059.03;10439353;28;20226;-66
2023/10/11 13:02:58;;;;;;;10.25;5.00;;;25.30;79.80;;;26.31;37.68;98065.97;10437051;28;20571;-66
2023/10/11 13:08:02;;;;;;;11.15;5.55;;;25.60;79.00;;;26.32;37.79;98057.22;10438281;28;20232;-66
2023/10/11 13:13:09;;;;;;;11.52;5.28;;;25.70;79.70;;;26.34;37.82;98057.25;10439410;28;20696;-65
2023/10/11 13:18:19;;;;;;;10.15;5.00;;;25.60;79.20;;;26.10;38.72;98042.41;10438889;28;20290;-66
2023/10/11 13:23:28;;;;;;;9.95;4.55;;;25.40;80.60;;;26.02;38.86;98038.09;10439033;28;20232;-66
2023/10/11 13:28:34;;;;;;;8.55;4.88;;;25.30;80.80;;;25.94;38.92;98039.84;10441008;28;20234;-65
2023/10/11 13:33:38;;;;;;;8.30;5.30;;;25.20;80.70;;;25.83;39.37;98028.50;10436325;28;20953;-66
2023/10/11 13:38:45;;;;;;;9.93;4.95;;;25.10;80.90;;;25.81;39.32;98030.19;10435329;28;20250;-65
2023/10/11 13:43:50;;;;;;;10.10;5.20;;;25.00;81.70;;;25.98;38.48;98020.63;10434994;28;20289;-66
2023/10/11 13:49:05;;;;;;;8.20;5.20;;;25.20;80.00;;;25.83;39.06;98016.28;10439618;28;20232;-65
2023/10/11 13:54:18;;;;;;;8.98;4.82;;;25.00;81.10;;;26.00;38.99;98013.63;10432418;28;20234;-65
2023/10/11 13:59:23;;;;;;;8.80;4.57;;;25.10;81.00;;;25.96;39.63;98005.78;10432467;28;20723;-65
2023/10/11 14:09:53;;;;;;;10.55;4.88;;;25.00;83.20;;;25.82;40.19;98008.41;10437806;28;20239;-66
2023/10/11 14:14:58;;;;;;;10.48;5.50;;;25.00;83.00;;;25.73;40.27;98003.19;10435693;28;20314;-64
2023/10/11 14:20:05;;;;;;;9.48;4.90;;;24.90;82.50;;;25.81;39.76;97996.16;10434536;28;20233;-66
2023/10/11 14:25:11;;;;;;;7.35;4.93;;;25.00;82.40;;;25.76;39.86;97987.47;10436271;28;20220;-66
2023/10/11 14:30:16;;;;;;;7.75;5.20;;;24.90;81.80;;;25.66;40.38;97985.72;10437520;28;20228;-67
2023/10/11 14:35:21;;;;;;;9.32;5.20;;;24.80;83.00;;;25.59;41.00;97992.72;10431752;28;20231;-66
2023/10/11 14:40:28;;;;;;;9.05;4.70;;;24.70;83.60;;;25.55;41.21;97977.84;10436473;28;20231;-66
2023/10/11 14:45:33;;;;;;;9.30;5.63;;;24.60;84.20;;;25.45;41.35;97977.00;10446575;28;20220;-66
2023/10/11 14:50:38;;;;;;;9.40;5.30;;;24.50;84.10;;;25.47;40.80;97963.91;10434151;28;20346;-66
2023/10/11 14:55:43;;;;;;;8.10;4.85;;;24.50;83.50;;;25.38;41.41;97962.16;10432737;28;20244;-66
2023/10/11 15:00:50;;;;;;;7.78;4.75;;;24.40;84.40;;;25.27;41.64;97961.31;10428419;28;20235;-66
2023/10/11 15:05:53;;;;;;;6.82;4.53;;;24.30;84.60;;;25.19;42.06;97957.81;10427361;28;20224;-66
2023/10/11 15:10:56;;;;;;;9.25;4.80;;;24.20;85.30;;;25.05;42.23;97963.88;10433496;28;20220;-65
2023/10/11 15:16:03;;;;;;;10.27;4.70;;;24.10;84.70;;;24.98;42.27;97959.50;10438078;28;20220;-66
2023/10/11 15:21:07;;;;;;;8.57;4.60;;;24.10;84.70;;;24.89;42.35;97964.69;10437511;28;20220;-66
2023/10/11 15:26:10;;;;;;;10.30;4.85;;;23.90;85.90;;;24.76;42.97;97955.09;10434872;28;20778;-65
2023/10/11 15:31:16;;;;;;;6.63;4.50;;;23.80;86.40;;;24.59;43.05;97955.94;10437491;28;20232;-66
2023/10/11 15:36:20;;;;;;;7.03;4.18;;;23.60;87.40;;;24.35;43.99;97951.47;10435020;28;20224;-67
2023/10/11 15:41:23;;;;;;;9.10;4.88;;;23.30;88.80;;;24.13;45.93;97953.13;10435123;28;20383;-66
2023/10/11 15:46:28;;;;;;;6.72;4.60;;;23.00;90.80;;;23.86;47.08;97948.59;10432432;28;20224;-66
2023/10/11 15:51:31;;;;;;;7.90;5.43;;;22.80;92.10;;;23.61;49.47;97942.34;10445621;28;20857;-65
2023/10/11 15:56:36;;;;;;;6.90;4.72;;;22.50;93.80;;;23.30;52.02;97954.28;10444530;28;20224;-66
2023/10/11 16:01:40;;;;;;;10.10;5.72;;;22.20;95.50;;;23.03;53.01;97957.53;10445682;28;20229;-66
2023/10/11 16:06:44;;;;;;;10.70;6.53;;;21.90;96.40;;;22.79;55.03;97956.41;10441155;28;20992;-63
2023/10/11 16:11:47;;;;;;;11.32;7.57;;;21.70;98.20;;;22.49;56.55;97955.22;10442418;28;20225;-65
2023/10/11 16:16:55;;;;;;;9.05;5.93;;;21.40;99.20;;;22.18;58.50;97967.00;10441074;28;20236;-65
2023/10/11 16:21:59;;;;;;;11.38;6.28;;;21.10;99.90;;;21.90;59.74;97970.06;10440809;28;20319;-66
2023/10/11 16:27:03;;;;;;;11.88;7.40;;;20.80;99.90;;;21.63;60.11;97965.31;10435636;28;20313;-66
2023/10/11 16:32:08;;;;;;;14.20;8.38;;;20.60;99.90;;;21.40;60.06;97973.63;10441227;28;20222;-66
2023/10/11 16:37:12;;;;;;;8.27;5.80;;;20.30;99.90;;;21.09;60.71;97973.09;10441690;28;20228;-66
2023/10/11 16:42:16;;;;;;;10.43;6.80;;;20.00;99.90;;;20.95;62.00;97979.78;10442648;28;20606;-66
2023/10/11 16:47:21;;;;;;;9.32;6.15;;;19.90;99.90;;;20.83;63.48;97984.72;10444729;28;20312;-66
2023/10/11 16:52:24;;;;;;;9.38;6.03;;;19.60;99.90;;;20.53;64.70;97987.63;10448949;28;20286;-66
2023/10/11 16:57:27;;;;;;;9.68;6.10;;;19.50;99.90;;;20.23;65.91;97987.03;10450444;28;20603;-65
2023/10/11 17:02:32;;;;;;;11.02;6.72;;;19.20;99.90;;;20.00;67.78;97996.00;10440789;28;20233;-67
2023/10/11 17:07:35;;;;;;;7.93;5.95;;;19.00;99.90;;;19.67;68.26;97996.13;10438681;28;20236;-64
2023/10/11 17:12:40;;;;;;;8.30;5.38;;;18.60;99.90;;;19.52;67.61;98002.69;10433328;28;20221;-63
2023/10/11 17:17:45;;;;;;;8.73;5.22;;;18.40;99.90;;;19.32;67.35;97990.97;10441883;28;20227;-67
2023/10/11 17:22:50;;;;;;;7.30;5.57;;;18.30;99.90;;;19.11;68.64;97991.28;10432138;28;20232;-65
2023/10/11 17:27:55;;;;;;;12.07;5.85;;;18.10;99.90;;;18.88;70.91;97996.72;10435827;28;20604;-66
2023/10/11 17:33:02;;;;;;;7.30;5.20;;;17.80;99.90;;;18.74;71.61;98000.66;10435728;28;20236;-65
2023/10/11 17:38:06;;;;;;;8.52;5.47;;;17.70;99.90;;;18.60;72.57;98002.88;10432984;28;20255;-65
2023/10/11 17:43:09;;;;;;;7.22;5.25;;;17.60;99.90;;;18.37;73.09;98007.41;10437735;28;20233;-66
2023/10/11 17:48:14;;;;;;;6.28;5.40;;;17.30;99.90;;;18.13;73.55;98012.72;10438087;28;20225;-66
2023/10/11 17:53:18;;;;;;;8.57;4.78;;;17.10;99.90;;;17.99;73.01;98007.13;10435161;28;20236;-65
2023/10/11 17:58:21;;;;;;;7.82;5.10;;;17.00;99.90;;;17.87;72.89;98006.75;10437686;28;20396;-66
2023/10/11 18:03:26;;;;;;;7.82;5.28;;;16.90;99.90;;;17.79;72.55;98010.81;10447827;28;20236;-66
2023/10/11 18:08:30;;;;;;;8.63;4.75;;;16.80;99.90;;;17.61;73.17;98012.81;10437606;28;20709;-67
2023/10/11 18:13:34;;;;;;;6.30;5.00;;;16.60;99.90;;;17.52;72.66;98011.69;10437249;28;20704;-66
2023/10/11 18:18:39;;;;;;;8.20;5.80;;;16.50;99.90;;;17.31;72.87;98004.13;10430634;28;20213;-66
2023/10/11 18:23:42;;;;;;;8.48;5.70;;;16.40;99.90;;;17.25;73.34;98005.59;10436786;28;20232;-66
2023/10/11 18:28:46;;;;;;;7.72;5.57;;;16.20;99.90;;;17.17;73.70;97996.72;10434030;28;20699;-65
2023/10/11 18:33:53;;;;;;;6.82;5.10;;;16.20;99.90;;;17.12;75.34;98001.75;10436158;28;20730;-64
2023/10/11 18:38:56;;;;;;;7.68;5.95;;;16.10;99.90;;;16.95;75.81;98008.91;10434325;28;20228;-66
2023/10/11 18:43:59;;;;;;;8.15;5.63;;;16.00;99.90;;;16.92;76.46;98002.78;10438380;28;20228;-63
2023/10/11 18:49:04;;;;;;;7.90;5.88;;;15.90;99.90;;;16.79;79.02;98014.38;10432193;28;20338;-65
2023/10/11 18:54:08;;;;;;;8.95;6.20;;;15.70;99.90;;;16.62;79.19;97995.66;10432469;28;20229;-66
2023/10/11 18:59:11;;;;;;;7.70;6.20;;;15.60;99.90;;;16.42;79.89;97994.94;10434267;28;20251;-64
2023/10/11 19:04:17;;;;;;;10.70;6.53;;;15.50;99.90;;;16.24;80.88;97995.16;10436844;28;21260;-65
2023/10/11 19:09:23;;;;;;;8.65;6.30;;;15.30;99.90;;;16.14;80.86;97995.66;10439498;28;20264;-67
2023/10/11 19:14:26;;;;;;;9.18;6.65;;;15.20;99.90;;;16.02;81.27;98001.22;10434745;28;20978;-66
2023/10/11 19:19:31;;;;;;;9.02;6.68;;;15.10;99.90;;;16.11;81.09;98004.16;10436466;28;20225;-66
2023/10/11 19:24:38;;;;;;;28.98;26.17;;;15.20;99.90;;;16.03;81.55;97991.81;10442122;28;20220;-66
2023/10/11 19:29:41;;;;;;;11.10;9.38;;;15.00;99.90;;;15.88;82.44;98000.72;10452709;28;20229;-66
2023/10/11 19:34:49;;;;;;;14.60;9.98;;;15.00;99.90;;;15.81;82.88;97993.53;10447184;28;20213;-66
2023/10/11 19:39:55;;;;;;;13.00;11.73;;;14.80;99.90;;;15.68;83.31;97991.31;10442343;28;20604;-64
2023/10/11 19:44:58;;;;;;;12.80;9.25;;;14.70;99.90;;;15.55;83.28;97998.53;10445747;28;20221;-66
2023/10/11 19:50:04;;;;;;;11.07;8.23;;;14.60;99.90;;;15.36;84.09;98002.88;10440859;28;20905;-67
2023/10/11 19:55:08;;;;;;;14.32;11.02;;;14.40;99.90;;;15.34;84.16;98002.84;10445320;28;20213;-66
2023/10/11 20:00:17;;;;;;;11.90;10.63;;;14.40;99.90;;;15.29;83.92;98001.75;10454323;28;20225;-66
2023/10/11 20:05:24;;;;;;;11.43;10.32;;;14.30;99.90;;;15.13;84.35;98002.81;10449799;28;20236;-65
2023/10/11 20:10:27;;;;;;;11.98;10.20;;;14.20;99.90;;;15.13;84.00;98005.38;10448073;28;20236;-64
2023/10/11 20:15:31;;;;;;;7.88;6.97;;;14.20;99.90;;;15.02;84.56;98004.97;10452960;28;20225;-65
2023/10/11 20:20:37;;;;;;;7.95;6.60;;;14.10;99.90;;;14.91;84.81;98003.63;10434156;28;20263;-66
2023/10/11 20:25:40;;;;;;;13.60;10.15;;;13.90;99.90;;;14.79;85.46;98000.50;10436986;28;20262;-64
2023/10/11 20:30:43;;;;;;;27.40;22.30;;;13.90;99.90;;;14.71;86.01;98007.03;10433621;28;20826;-66
2023/10/11 20:35:49;;;;;;;20.70;16.45;;;13.70;99.90;;;14.57;85.55;98014.16;10437913;28;20240;-65
2023/10/11 20:40:52;;;;;;;18.58;13.82;;;13.60;99.90;;;14.47;85.65;98004.22;10439516;28;20624;-66
2023/10/11 20:45:55;;;;;;;8.55;7.30;;;13.50;99.90;;;14.29;86.68;98015.47;10437060;28;22427;-66
2023/10/11 20:51:00;;;;;;;7.30;6.45;;;13.40;99.90;;;14.26;86.27;98017.03;10439002;28;20232;-67
2023/10/11 20:56:06;;;;;;;8.35;6.07;;;13.40;99.90;;;14.21;87.15;98009.09;10436944;28;20228;-68
2023/10/11 21:01:12;;;;;;;8.80;6.38;;;13.40;99.90;;;14.26;86.28;98012.75;10438564;28;20229;-66
2023/10/11 21:06:17;;;;;;;11.18;6.18;;;13.30;99.90;;;14.27;86.33;98014.50;10442217;28;20315;-65
2023/10/11 21:11:20;;;;;;;7.30;6.10;;;13.40;99.90;;;14.15;86.90;98012.25;10434878;28;20679;-66
2023/10/11 21:16:24;;;;;;;8.50;6.75;;;13.30;99.90;;;14.08;87.75;98009.34;10437998;28;20306;-66
2023/10/11 21:21:28;;;;;;;7.25;5.65;;;13.10;99.90;;;14.07;87.35;98016.16;10438331;28;20229;-66
2023/10/11 21:26:33;;;;;;;38.33;28.30;;;13.10;99.90;;;13.96;88.99;98030.22;10435083;28;20316;-65